Time;durP1;ratioP1;P1;durP2;ratioP2;P2;SDS_P1;SDS_P2;PMS_P1;PMS_P2;Temp;Humidity;BMP_temperature;BMP_pressure;BME280_temperature;BME280_humidity;BME280_pressure;Samples;Min_cycle;Max_cycle;Signal;HPM_P1;HPM_P2
2022/06/28 05:11:10;;;;;;;2.03;1.93;;;;;;;;;;502084;233;38771;-69
2022/06/28 05:13:13;;;;;;;1.70;1.60;;;;;;;;;;494166;240;27503;-70
2022/06/28 05:15:14;;;;;;;2.17;2.07;;;12.80;99.90;;;;;;494201;240;26419;-70
2022/06/28 05:17:15;;;;;;;1.87;1.77;;;12.90;99.90;;;;;;494182;240;28367;-71
2022/06/28 05:19:16;;;;;;;1.60;1.50;;;12.90;99.90;;;;;;494188;240;28313;-73
2022/06/28 05:21:18;;;;;;;1.50;1.40;;;12.90;99.90;;;;;;494193;240;28148;-71
2022/06/28 05:23:21;;;;;;;1.73;1.63;;;;;;;;;;494167;240;28215;-70
2022/06/28 05:25:22;;;;;;;1.90;1.80;;;13.10;99.90;;;;;;494222;240;26492;-70
2022/06/28 05:27:23;;;;;;;1.90;1.70;;;13.30;99.90;;;;;;494177;240;28191;-71
2022/06/28 05:29:24;;;;;;;1.90;1.80;;;13.30;99.90;;;;;;494179;240;28247;-70
2022/06/28 05:31:27;;;;;;;1.90;1.80;;;;;;;;;;494155;240;28275;-70
2022/06/28 05:33:28;;;;;;;1.40;1.40;;;13.50;99.90;;;;;;494198;240;26904;-68
2022/06/28 05:35:30;;;;;;;1.70;1.70;;;;;;;;;;494165;240;28399;-71
2022/06/28 05:37:32;;;;;;;1.67;1.57;;;13.60;99.90;;;;;;494151;240;26577;-71
2022/06/28 05:39:33;;;;;;;1.90;1.80;;;13.60;99.90;;;;;;494141;240;28346;-74
2022/06/28 05:41:34;;;;;;;1.70;1.70;;;13.60;99.90;;;;;;494185;240;28825;-71
2022/06/28 05:43:35;;;;;;;2.00;1.90;;;13.70;99.90;;;;;;494161;240;28653;-70
2022/06/28 05:45:37;;;;;;;1.30;1.30;;;13.80;99.90;;;;;;494161;240;28715;-71
2022/06/28 05:47:38;;;;;;;2.50;1.60;;;13.90;99.90;;;;;;494077;240;28184;-70
2022/06/28 05:49:39;;;;;;;1.90;1.80;;;14.00;99.90;;;;;;494184;240;28334;-73
2022/06/28 05:51:40;;;;;;;2.00;1.90;;;14.10;99.90;;;;;;494149;240;28243;-70
2022/06/28 05:53:42;;;;;;;2.20;2.10;;;14.30;99.90;;;;;;494172;240;28192;-72
2022/06/28 05:55:44;;;;;;;1.90;1.80;;;;;;;;;;494189;240;28282;-72
2022/06/28 05:57:45;;;;;;;2.00;1.90;;;14.40;99.90;;;;;;494178;240;26992;-74
2022/06/28 05:59:47;;;;;;;2.47;2.37;;;14.60;99.90;;;;;;494148;240;28286;-71
2022/06/28 06:01:48;;;;;;;1.97;1.80;;;14.70;99.90;;;;;;494142;240;28192;-72
2022/06/28 06:03:49;;;;;;;1.90;1.80;;;14.80;99.90;;;;;;494131;240;28165;-70
2022/06/28 06:05:51;;;;;;;1.93;1.83;;;14.80;99.90;;;;;;494137;240;28505;-71
2022/06/28 06:07:52;;;;;;;1.73;1.63;;;14.90;99.90;;;;;;494144;240;28325;-72
2022/06/28 06:09:53;;;;;;;2.10;2.00;;;15.00;99.90;;;;;;494132;240;28247;-71
2022/06/28 06:11:54;;;;;;;2.00;1.90;;;15.00;99.90;;;;;;494162;240;28833;-71
2022/06/28 06:13:55;;;;;;;2.20;2.10;;;15.10;99.90;;;;;;494149;240;28275;-71
2022/06/28 06:15:57;;;;;;;1.93;1.83;;;15.20;99.90;;;;;;494130;240;28924;-70
2022/06/28 06:17:58;;;;;;;2.43;2.23;;;15.20;99.90;;;;;;494167;240;28788;-72
2022/06/28 06:19:59;;;;;;;2.33;2.20;;;15.30;99.90;;;;;;494119;240;28937;-70
2022/06/28 06:22:00;;;;;;;3.20;2.70;;;15.40;99.90;;;;;;494053;240;29402;-70
2022/06/28 06:24:02;;;;;;;2.47;2.33;;;15.50;99.90;;;;;;494058;241;30161;-70
2022/06/28 06:26:03;;;;;;;2.87;2.67;;;15.60;99.90;;;;;;494049;241;28785;-71
2022/06/28 06:28:04;;;;;;;2.70;2.50;;;15.60;99.90;;;;;;494047;241;28832;-72
2022/06/28 06:30:06;;;;;;;2.30;2.20;;;15.60;99.90;;;;;;494067;241;28599;-72
2022/06/28 06:32:07;;;;;;;3.30;2.73;;;15.70;99.90;;;;;;494045;241;28876;-71
2022/06/28 06:34:08;;;;;;;2.50;2.30;;;15.80;99.90;;;;;;494061;240;28822;-70
2022/06/28 06:36:09;;;;;;;2.27;2.17;;;15.80;99.90;;;;;;493790;241;28836;-70
2022/06/28 06:38:10;;;;;;;2.30;2.20;;;15.90;99.90;;;;;;494044;241;28822;-72
2022/06/28 06:40:12;;;;;;;2.50;2.10;;;16.00;99.90;;;;;;494019;241;28933;-70
2022/06/28 06:42:13;;;;;;;4.13;2.80;;;16.10;99.90;;;;;;493993;241;29365;-70
2022/06/28 06:44:14;;;;;;;2.80;2.70;;;16.10;99.90;;;;;;494043;241;29393;-72
2022/06/28 06:46:15;;;;;;;2.60;2.40;;;16.10;99.90;;;;;;494056;241;29327;-70
2022/06/28 06:48:17;;;;;;;2.57;2.40;;;16.20;99.90;;;;;;494031;241;29685;-70
2022/06/28 06:50:19;;;;;;;4.70;2.40;;;16.30;99.90;;;;;;494049;241;28838;-71
2022/06/28 06:52:19;;;;;;;2.40;2.27;;;16.20;99.90;;;;;;493981;241;28944;-70
2022/06/28 06:54:20;;;;;;;2.40;2.20;;;16.30;99.90;;;;;;494059;241;28831;-73
2022/06/28 06:56:22;;;;;;;2.10;2.00;;;16.40;99.90;;;;;;494061;241;28818;-70
2022/06/28 06:58:24;;;;;;;2.60;2.40;;;16.30;99.90;;;;;;494060;241;28826;-70
2022/06/28 07:00:24;;;;;;;2.30;2.20;;;16.30;99.90;;;;;;494047;241;29219;-70
2022/06/28 07:02:25;;;;;;;2.43;2.30;;;16.40;99.90;;;;;;494052;241;29214;-70
2022/06/28 07:04:27;;;;;;;2.73;2.50;;;16.40;99.90;;;;;;494084;241;28911;-74
2022/06/28 07:06:28;;;;;;;3.13;2.93;;;16.40;99.90;;;;;;494051;241;28810;-70
2022/06/28 07:08:29;;;;;;;3.00;2.70;;;16.40;99.90;;;;;;494054;241;29282;-71
2022/06/28 07:10:30;;;;;;;3.70;2.57;;;16.40;99.90;;;;;;494069;241;29292;-70
2022/06/28 07:12:32;;;;;;;2.40;2.20;;;16.50;99.90;;;;;;494041;241;29318;-70
2022/06/28 07:14:33;;;;;;;2.60;2.50;;;16.50;99.90;;;;;;494090;241;28824;-73
2022/06/28 07:16:34;;;;;;;2.27;2.17;;;16.60;99.90;;;;;;494060;241;28907;-70
2022/06/28 07:18:35;;;;;;;2.93;2.60;;;16.70;99.90;;;;;;494052;241;28822;-70
2022/06/28 07:20:37;;;;;;;2.53;2.40;;;16.80;99.90;;;;;;493888;241;29232;-70
2022/06/28 07:22:38;;;;;;;3.33;2.30;;;16.70;99.90;;;;;;494032;241;28843;-70
2022/06/28 07:24:39;;;;;;;2.30;2.00;;;16.70;99.90;;;;;;494044;241;28832;-73
2022/06/28 07:26:40;;;;;;;2.30;2.20;;;16.70;99.90;;;;;;494066;241;28793;-70
2022/06/28 07:28:42;;;;;;;2.40;2.20;;;16.70;99.90;;;;;;493980;241;28831;-71
2022/06/28 07:30:43;;;;;;;2.43;2.20;;;16.70;99.90;;;;;;493866;241;28861;-69
2022/06/28 07:32:44;;;;;;;2.60;2.40;;;16.70;99.90;;;;;;493936;241;29362;-70
2022/06/28 07:34:45;;;;;;;2.43;2.33;;;16.70;99.90;;;;;;493981;240;29402;-72
2022/06/28 07:36:47;;;;;;;2.50;2.30;;;16.80;99.90;;;;;;493999;241;29684;-70
2022/06/28 07:38:48;;;;;;;2.40;2.20;;;16.90;99.90;;;;;;494013;241;29423;-71
2022/06/28 07:40:49;;;;;;;2.30;2.10;;;16.90;99.90;;;;;;493974;241;28863;-70
2022/06/28 07:42:50;;;;;;;2.50;2.40;;;17.00;99.90;;;;;;494015;241;28896;-70
2022/06/28 07:44:52;;;;;;;2.43;2.27;;;17.00;99.90;;;;;;494048;241;28918;-73
2022/06/28 07:46:53;;;;;;;2.10;2.00;;;17.00;99.90;;;;;;494034;241;28774;-70
2022/06/28 07:48:54;;;;;;;2.37;2.20;;;17.10;99.90;;;;;;494048;241;28933;-71
2022/06/28 07:53:15;;;;;;;2.80;2.57;;;17.40;99.90;;;;;;493996;241;28788;-72
2022/06/28 07:55:16;;;;;;;2.93;2.70;;;17.30;99.90;;;;;;493603;241;28930;-71
2022/06/28 07:57:17;;;;;;;2.70;2.60;;;17.30;99.90;;;;;;494068;241;28811;-70
2022/06/28 07:59:19;;;;;;;2.70;2.50;;;17.30;99.90;;;;;;494064;241;28828;-70
2022/06/28 08:01:20;;;;;;;2.50;2.40;;;17.30;99.90;;;;;;494073;241;28906;-74
2022/06/28 08:03:21;;;;;;;2.57;2.43;;;17.40;99.90;;;;;;494077;241;28807;-70
2022/06/28 08:05:22;;;;;;;2.40;2.30;;;17.40;99.90;;;;;;493984;241;28921;-70
2022/06/28 08:07:24;;;;;;;2.73;2.57;;;17.50;99.90;;;;;;494068;241;29233;-70
2022/06/28 08:09:25;;;;;;;3.00;2.80;;;17.50;99.90;;;;;;494028;241;29383;-71
2022/06/28 08:11:26;;;;;;;2.60;2.50;;;17.60;99.90;;;;;;494060;241;29338;-73
2022/06/28 08:13:27;;;;;;;3.37;3.17;;;17.60;99.90;;;;;;494083;241;28943;-71
2022/06/28 08:15:29;;;;;;;2.80;2.70;;;17.60;99.90;;;;;;494062;241;28831;-70
2022/06/28 08:17:30;;;;;;;3.00;2.80;;;17.70;99.90;;;;;;494073;241;28878;-70
2022/06/28 08:19:31;;;;;;;2.77;2.67;;;17.80;99.90;;;;;;493975;241;28811;-70
2022/06/28 08:21:32;;;;;;;3.63;3.30;;;17.90;99.90;;;;;;493944;241;28888;-74
2022/06/28 08:23:34;;;;;;;2.80;2.60;;;17.90;99.90;;;;;;494080;241;28896;-70
2022/06/28 08:25:35;;;;;;;2.67;2.47;;;17.80;99.90;;;;;;494084;241;28979;-71
2022/06/28 08:27:36;;;;;;;2.10;2.00;;;17.70;99.90;;;;;;494062;241;28871;-70
2022/06/28 08:29:37;;;;;;;2.23;2.13;;;17.90;99.90;;;;;;494027;241;28913;-71
2022/06/28 08:31:39;;;;;;;2.00;1.90;;;18.10;99.90;;;;;;494054;241;29374;-72
2022/06/28 08:33:40;;;;;;;2.60;2.10;;;18.10;99.90;;;;;;494071;241;29206;-70
2022/06/28 08:35:41;;;;;;;1.87;1.77;;;18.30;99.90;;;;;;494087;241;29710;-70
2022/06/28 08:37:42;;;;;;;2.10;2.00;;;18.30;99.90;;;;;;494100;241;29250;-70
2022/06/28 08:39:44;;;;;;;2.17;1.97;;;18.40;99.90;;;;;;494086;241;28905;-70
2022/06/28 08:41:45;;;;;;;2.20;2.10;;;18.40;99.90;;;;;;492772;237;28898;-73
2022/06/28 08:43:46;;;;;;;7.50;2.57;;;18.30;99.90;;;;;;494071;241;28890;-70
2022/06/28 08:45:47;;;;;;;2.10;1.97;;;18.30;99.90;;;;;;494025;241;28828;-72
2022/06/28 08:47:49;;;;;;;2.20;2.10;;;18.30;99.90;;;;;;494038;241;28799;-70
2022/06/28 08:49:50;;;;;;;2.20;2.10;;;18.50;99.90;;;;;;494044;241;28806;-71
2022/06/28 08:51:52;;;;;;;2.17;2.07;;;18.60;99.90;;;;;;493982;241;28854;-72
2022/06/28 08:53:52;;;;;;;2.43;2.00;;;18.50;99.90;;;;;;494022;241;28788;-70
2022/06/28 08:55:54;;;;;;;2.00;1.80;;;18.50;99.90;;;;;;493987;241;29337;-72
2022/06/28 08:57:55;;;;;;;2.00;1.90;;;18.60;99.90;;;;;;494049;241;29951;-71
2022/06/28 08:59:56;;;;;;;1.90;1.80;;;18.80;99.90;;;;;;494017;241;29235;-72
2022/06/28 09:01:57;;;;;;;2.13;2.00;;;18.80;99.90;;;;;;494057;241;29429;-72
2022/06/28 09:03:59;;;;;;;3.03;2.23;;;18.80;99.90;;;;;;494038;241;28772;-70
2022/06/28 09:06:00;;;;;;;2.10;2.00;;;18.90;99.90;;;;;;493919;241;28889;-71
2022/06/28 09:08:01;;;;;;;5.37;2.30;;;19.10;99.90;;;;;;494047;241;28815;-71
2022/06/28 09:10:02;;;;;;;2.07;1.90;;;18.90;99.90;;;;;;494037;241;28786;-71
2022/06/28 09:12:04;;;;;;;1.70;1.60;;;18.90;99.90;;;;;;493869;241;28982;-72
2022/06/28 09:14:05;;;;;;;3.40;1.83;;;18.70;99.90;;;;;;493926;241;28794;-71
2022/06/28 09:16:06;;;;;;;1.90;1.80;;;19.00;99.90;;;;;;494029;241;28835;-70
2022/06/28 09:18:07;;;;;;;2.43;2.23;;;18.80;99.90;;;;;;493872;237;28854;-73
2022/06/28 09:20:09;;;;;;;2.10;1.90;;;18.80;99.90;;;;;;494041;241;28784;-71
2022/06/28 09:22:10;;;;;;;1.80;1.70;;;18.90;99.90;;;;;;494021;241;29285;-71
2022/06/28 09:24:11;;;;;;;1.73;1.67;;;19.10;99.90;;;;;;494054;241;30075;-70
2022/06/28 09:26:12;;;;;;;2.03;1.90;;;19.00;99.90;;;;;;494039;241;29310;-71
2022/06/28 09:28:14;;;;;;;2.13;2.03;;;19.20;99.90;;;;;;494040;237;28929;-73
2022/06/28 09:30:15;;;;;;;2.13;1.77;;;19.30;99.90;;;;;;493965;241;28788;-71
2022/06/28 09:32:16;;;;;;;1.80;1.70;;;19.50;99.90;;;;;;494014;241;28912;-72
2022/06/28 09:34:17;;;;;;;1.73;1.63;;;19.40;99.90;;;;;;494046;241;28903;-70
2022/06/28 09:36:19;;;;;;;1.80;1.70;;;19.50;99.90;;;;;;493998;241;28827;-70
2022/06/28 09:38:20;;;;;;;1.83;1.73;;;19.40;99.90;;;;;;494044;241;29310;-74
2022/06/28 09:40:21;;;;;;;3.30;1.73;;;19.40;99.90;;;;;;494035;241;28791;-71
2022/06/28 09:42:22;;;;;;;2.00;1.90;;;19.50;99.90;;;;;;494039;241;28823;-71
2022/06/28 09:44:24;;;;;;;2.20;1.70;;;19.40;99.90;;;;;;494031;241;28883;-70
2022/06/28 09:46:26;;;;;;;2.70;1.63;;;19.40;99.90;;;;;;494006;241;29281;-71
2022/06/28 09:48:26;;;;;;;3.20;1.93;;;19.40;99.90;;;;;;493950;241;29312;-73
2022/06/28 09:50:27;;;;;;;1.87;1.77;;;19.50;99.90;;;;;;494045;241;29368;-71
2022/06/28 09:52:29;;;;;;;1.93;1.73;;;19.60;99.90;;;;;;494034;241;28840;-71
2022/06/28 09:54:30;;;;;;;3.13;1.63;;;19.80;99.90;;;;;;494045;241;28794;-71
2022/06/28 09:56:31;;;;;;;2.10;1.80;;;19.80;99.90;;;;;;494010;241;28910;-71
2022/06/28 09:58:32;;;;;;;1.60;1.53;;;19.90;99.90;;;;;;493667;241;28861;-74
2022/06/28 10:00:35;;;;;;;1.90;1.70;;;19.90;99.90;;;;;;493850;241;28782;-72
2022/06/28 10:02:35;;;;;;;1.80;1.70;;;19.80;99.90;;;;;;493558;241;28843;-73
2022/06/28 10:04:36;;;;;;;1.63;1.53;;;19.90;99.90;;;;;;494046;241;28865;-71
2022/06/28 10:06:37;;;;;;;2.03;1.67;;;19.90;99.90;;;;;;494053;241;28897;-71
2022/06/28 10:08:39;;;;;;;2.80;1.50;;;19.70;99.90;;;;;;494069;241;28829;-72
2022/06/28 10:10:41;;;;;;;2.60;1.63;;;19.90;99.90;;;;;;494103;241;29265;-72
2022/06/28 10:15:04;;;;;;;1.80;1.70;;;19.70;99.90;;;;;;493375;236;28858;-71
2022/06/28 10:17:05;;;;;;;2.20;1.83;;;20.10;99.90;;;;;;485306;244;28778;-70
2022/06/28 10:19:06;;;;;;;4.20;1.60;;;20.20;99.90;;;;;;485302;245;28795;-71
2022/06/28 10:21:08;;;;;;;1.80;1.70;;;20.20;99.90;;;;;;485305;245;29289;-73
2022/06/28 10:23:08;;;;;;;1.73;1.60;;;20.10;99.90;;;;;;485265;245;29224;-71
2022/06/28 10:25:10;;;;;;;1.50;1.40;;;20.30;99.90;;;;;;485304;245;29348;-70
2022/06/28 10:27:11;;;;;;;1.70;1.47;;;20.30;99.90;;;;;;485285;245;29513;-71
2022/06/28 10:29:13;;;;;;;2.60;1.70;;;20.50;99.90;;;;;;485330;245;28773;-72
2022/06/28 10:31:13;;;;;;;1.97;1.87;;;20.50;99.90;;;;;;485275;245;28798;-72
2022/06/28 10:33:15;;;;;;;1.97;1.87;;;20.50;99.90;;;;;;485311;245;28771;-72
2022/06/28 10:35:16;;;;;;;3.67;1.93;;;20.50;99.90;;;;;;485306;245;28825;-71
2022/06/28 10:37:17;;;;;;;2.60;1.60;;;20.60;99.90;;;;;;485275;245;28819;-71
2022/06/28 10:39:18;;;;;;;2.87;2.10;;;20.70;99.90;;;;;;487339;241;28763;-71
2022/06/28 10:41:20;;;;;;;1.90;1.80;;;20.70;99.90;;;;;;489432;243;28739;-72
2022/06/28 10:43:21;;;;;;;2.70;2.30;;;20.50;99.90;;;;;;489401;242;28701;-71
2022/06/28 10:45:22;;;;;;;1.90;1.80;;;20.50;99.90;;;;;;492446;241;29288;-71
2022/06/28 10:47:23;;;;;;;2.40;1.87;;;20.70;99.90;;;;;;493990;237;29405;-71
2022/06/28 10:49:25;;;;;;;2.40;1.70;;;20.90;99.90;;;;;;493331;236;30073;-72
2022/06/28 10:51:26;;;;;;;1.70;1.60;;;20.80;99.90;;;;;;495560;236;29360;-72
2022/06/28 10:53:27;;;;;;;2.77;1.60;;;20.80;99.90;;;;;;489438;241;28730;-72
2022/06/28 10:55:28;;;;;;;2.27;1.50;;;20.80;99.90;;;;;;489267;242;28868;-73
2022/06/28 10:57:30;;;;;;;2.30;2.10;;;20.50;99.90;;;;;;489335;242;28819;-72
2022/06/28 10:59:31;;;;;;;2.20;1.80;;;20.50;99.90;;;;;;491107;241;28732;-72
2022/06/28 11:01:32;;;;;;;1.97;1.80;;;20.40;99.90;;;;;;494045;241;28943;-71
2022/06/28 11:03:34;;;;;;;2.07;1.97;;;20.70;99.90;;;;;;494050;241;28804;-71
2022/06/28 11:05:35;;;;;;;1.60;1.50;;;20.70;99.90;;;;;;493974;241;28837;-72
2022/06/28 11:07:36;;;;;;;1.67;1.57;;;20.80;99.90;;;;;;494038;241;28895;-72
2022/06/28 11:09:37;;;;;;;3.53;1.60;;;21.00;99.90;;;;;;494084;241;28851;-72
2022/06/28 11:11:38;;;;;;;2.50;1.90;;;21.00;99.90;;;;;;494081;241;29413;-73
2022/06/28 11:13:40;;;;;;;2.20;1.97;;;20.90;99.90;;;;;;494048;241;29281;-71
2022/06/28 11:15:42;;;;;;;3.17;1.60;;;20.70;99.90;;;;;;494031;241;29299;-71
2022/06/28 11:17:42;;;;;;;1.60;1.50;;;21.10;99.90;;;;;;493755;241;29183;-75
2022/06/28 11:19:50;;;;;;;1.77;1.63;;;21.10;99.90;;;;;;494072;241;28791;-71
2022/06/28 11:21:45;;;;;;;2.17;1.77;;;21.20;99.90;;;;;;493469;241;28845;-72
2022/06/28 11:23:46;;;;;;;1.80;1.70;;;21.30;99.90;;;;;;494049;241;28873;-71
2022/06/28 11:28:07;;;;;;;1.77;1.67;;;21.20;99.90;;;;;;494071;241;29297;-72
2022/06/28 11:30:08;;;;;;;1.83;1.73;;;21.20;99.90;;;;;;494085;241;29360;-71
2022/06/28 11:32:09;;;;;;;2.57;1.50;;;21.00;99.90;;;;;;494060;241;29305;-72
2022/06/28 11:34:10;;;;;;;2.00;1.87;;;21.10;99.90;;;;;;494090;241;28880;-71
2022/06/28 11:36:12;;;;;;;1.60;1.50;;;21.00;99.90;;;;;;493838;239;28879;-71
2022/06/28 11:38:15;;;;;;;1.90;1.80;;;21.00;99.90;;;;;;494065;241;28930;-73
2022/06/28 11:40:15;;;;;;;1.93;1.77;;;21.50;99.90;;;;;;493899;241;28951;-71
2022/06/28 11:42:15;;;;;;;6.37;1.97;;;21.60;99.90;;;;;;494009;241;28820;-72
2022/06/28 11:44:17;;;;;;;1.80;1.70;;;21.60;99.90;;;;;;493995;241;28787;-71
2022/06/28 11:46:18;;;;;;;1.40;1.40;;;21.50;99.90;;;;;;494049;241;28818;-71
2022/06/28 11:48:19;;;;;;;1.80;1.70;;;21.60;99.90;;;;;;494082;241;28927;-74
2022/06/28 11:50:21;;;;;;;1.70;1.60;;;21.70;99.90;;;;;;494080;241;28837;-71
2022/06/28 11:52:22;;;;;;;2.50;1.90;;;21.40;99.90;;;;;;494080;241;29649;-72
2022/06/28 11:54:23;;;;;;;2.23;1.90;;;21.50;99.90;;;;;;494080;241;29297;-71
2022/06/28 11:56:24;;;;;;;6.20;1.83;;;21.50;99.90;;;;;;494077;241;29305;-72
2022/06/28 11:58:25;;;;;;;1.83;1.73;;;21.70;99.90;;;;;;494109;241;28847;-74
2022/06/28 12:00:27;;;;;;;2.20;2.00;;;21.80;99.90;;;;;;494075;241;28881;-71
2022/06/28 12:02:28;;;;;;;2.07;1.87;;;21.70;99.90;;;;;;494087;241;28930;-72
2022/06/28 12:04:29;;;;;;;2.13;2.03;;;21.60;99.90;;;;;;494085;241;28771;-71
2022/06/28 12:06:30;;;;;;;4.60;2.17;;;21.40;99.90;;;;;;494056;241;28822;-71
2022/06/28 12:08:32;;;;;;;3.00;2.10;;;21.50;99.90;;;;;;494091;241;28836;-73
2022/06/28 12:10:33;;;;;;;2.10;1.93;;;21.90;99.90;;;;;;493689;241;28830;-71
2022/06/28 12:12:34;;;;;;;1.90;1.80;;;21.70;99.90;;;;;;494060;241;28895;-71
2022/06/28 12:14:36;;;;;;;3.00;1.90;;;21.70;99.90;;;;;;494005;241;28781;-71
2022/06/28 12:16:37;;;;;;;1.60;1.50;;;21.60;99.90;;;;;;494032;239;29286;-71
2022/06/28 12:18:38;;;;;;;2.50;1.60;;;21.40;99.90;;;;;;494071;241;29368;-74
2022/06/28 12:20:39;;;;;;;2.20;1.50;;;21.60;99.90;;;;;;494067;241;29256;-71
2022/06/28 12:22:40;;;;;;;1.97;1.87;;;21.70;99.90;;;;;;494074;241;28836;-71
2022/06/28 12:24:42;;;;;;;1.70;1.60;;;21.90;99.90;;;;;;494054;241;28775;-71
2022/06/28 12:26:43;;;;;;;2.10;1.90;;;22.20;99.90;;;;;;494028;241;28807;-72
2022/06/28 12:28:44;;;;;;;2.83;1.90;;;22.20;99.90;;;;;;494073;241;28815;-73
2022/06/28 12:30:45;;;;;;;1.93;1.80;;;21.90;99.90;;;;;;494066;241;28787;-71
2022/06/28 12:32:47;;;;;;;2.80;2.20;;;21.80;99.90;;;;;;494041;241;28831;-71
2022/06/28 12:34:48;;;;;;;2.60;1.73;;;22.20;99.90;;;;;;493982;241;28841;-71
2022/06/28 12:36:49;;;;;;;2.10;1.90;;;22.30;99.90;;;;;;494031;241;28924;-71
2022/06/28 12:38:50;;;;;;;2.10;1.87;;;22.20;99.90;;;;;;494066;241;28839;-73
2022/06/28 12:40:52;;;;;;;1.90;1.80;;;22.20;99.90;;;;;;494063;241;29304;-71
2022/06/28 12:42:53;;;;;;;1.70;1.60;;;22.30;99.90;;;;;;494042;241;29391;-72
2022/06/28 12:44:54;;;;;;;3.17;1.90;;;22.30;99.90;;;;;;494066;241;29320;-71
2022/06/28 12:46:55;;;;;;;2.20;1.63;;;22.40;99.90;;;;;;493963;241;29362;-71
2022/06/28 12:48:57;;;;;;;2.00;1.77;;;22.20;99.90;;;;;;494061;241;28812;-73
2022/06/28 12:50:58;;;;;;;3.13;1.77;;;22.20;99.90;;;;;;494075;241;28822;-71
2022/06/28 12:52:59;;;;;;;2.63;2.40;;;22.30;99.90;;;;;;494026;239;28828;-72
2022/06/28 12:55:00;;;;;;;4.83;1.90;;;22.40;99.90;;;;;;494064;241;28795;-71
2022/06/28 12:57:02;;;;;;;2.30;1.93;;;22.50;99.90;;;;;;493916;241;28792;-71
2022/06/28 12:59:03;;;;;;;1.80;1.70;;;22.60;99.90;;;;;;494060;241;28923;-72
2022/06/28 13:01:04;;;;;;;2.13;1.83;;;22.60;99.90;;;;;;493991;241;28782;-71
2022/06/28 13:03:05;;;;;;;2.50;1.90;;;22.50;99.90;;;;;;493994;241;28898;-71
2022/06/28 13:05:07;;;;;;;2.03;1.60;;;22.40;99.90;;;;;;494044;241;30287;-71
2022/06/28 13:07:08;;;;;;;3.63;1.50;;;22.40;99.90;;;;;;494049;239;29292;-71
2022/06/28 13:09:09;;;;;;;2.67;1.77;;;22.60;99.90;;;;;;494071;241;29306;-73
2022/06/28 13:11:12;;;;;;;2.07;1.97;;;22.60;99.90;;;;;;494026;241;29285;-71
2022/06/28 13:13:12;;;;;;;1.90;1.80;;;22.50;99.90;;;;;;493930;241;28935;-71
2022/06/28 13:15:13;;;;;;;1.80;1.70;;;22.40;99.90;;;;;;494029;241;28909;-71
2022/06/28 13:17:14;;;;;;;2.00;1.80;;;22.30;99.90;;;;;;494073;241;28791;-71
2022/06/28 13:19:15;;;;;;;2.03;1.40;;;22.20;99.90;;;;;;494106;241;28823;-73
2022/06/28 13:21:17;;;;;;;2.50;1.77;;;22.50;99.90;;;;;;494097;241;28798;-71
2022/06/28 13:23:18;;;;;;;2.20;1.70;;;22.80;99.90;;;;;;494090;241;28918;-71
2022/06/28 13:25:19;;;;;;;1.90;1.80;;;22.50;99.90;;;;;;494085;241;28814;-73
2022/06/28 13:27:20;;;;;;;2.00;1.80;;;22.40;99.90;;;;;;494063;240;28793;-71
2022/06/28 13:29:22;;;;;;;1.73;1.63;;;22.50;99.90;;;;;;494074;241;28820;-71
2022/06/28 13:31:23;;;;;;;2.30;1.80;;;22.50;99.90;;;;;;493918;241;29255;-71
2022/06/28 13:33:24;;;;;;;1.90;1.80;;;22.60;99.90;;;;;;494082;239;29440;-71
2022/06/28 13:35:25;;;;;;;3.20;1.80;;;22.60;99.90;;;;;;494073;241;29380;-71
2022/06/28 13:37:29;;;;;;;3.37;1.73;;;22.80;99.90;;;;;;494122;241;28790;-71
2022/06/28 13:39:28;;;;;;;1.93;1.80;;;22.70;99.90;;;;;;493969;241;28867;-71
2022/06/28 13:41:29;;;;;;;1.60;1.50;;;22.90;99.90;;;;;;494070;239;28784;-71
2022/06/28 13:43:33;;;;;;;2.20;1.47;;;22.90;99.90;;;;;;493930;241;28821;-71
2022/06/28 13:45:34;;;;;;;1.50;1.40;;;22.60;99.90;;;;;;494069;241;28820;-71
2022/06/28 13:47:37;;;;;;;1.90;1.80;;;22.70;99.90;;;;;;494063;241;28772;-71
2022/06/28 13:49:37;;;;;;;2.20;1.60;;;22.80;99.90;;;;;;494046;241;28812;-71
2022/06/28 13:51:38;;;;;;;1.93;1.40;;;22.70;99.90;;;;;;494064;241;28920;-71
2022/06/28 13:53:39;;;;;;;3.20;2.07;;;22.90;99.90;;;;;;494092;241;28804;-71
2022/06/28 13:55:42;;;;;;;1.80;1.70;;;22.90;99.90;;;;;;494011;241;28829;-72
2022/06/28 13:57:42;;;;;;;1.73;1.63;;;22.70;99.90;;;;;;493987;241;30185;-71
2022/06/28 13:59:43;;;;;;;1.60;1.50;;;22.90;99.90;;;;;;494092;241;29310;-71
2022/06/28 14:01:46;;;;;;;2.00;1.90;;;22.90;99.90;;;;;;494102;239;29307;-71
2022/06/28 14:03:46;;;;;;;2.20;2.10;;;22.90;99.90;;;;;;494031;241;28885;-71
2022/06/28 14:05:47;;;;;;;2.93;1.87;;;22.80;99.90;;;;;;493985;241;28815;-71
2022/06/28 14:07:48;;;;;;;2.97;1.90;;;22.90;99.90;;;;;;494106;241;28832;-74
2022/06/28 14:09:49;;;;;;;2.23;1.67;;;23.00;99.90;;;;;;494117;241;28792;-71
2022/06/28 14:11:51;;;;;;;5.97;1.67;;;23.00;99.90;;;;;;494097;241;28821;-72
2022/06/28 14:13:52;;;;;;;1.80;1.70;;;22.80;99.90;;;;;;494089;241;28812;-71
2022/06/28 14:15:53;;;;;;;1.80;1.70;;;23.00;99.90;;;;;;494044;241;29007;-71
2022/06/28 14:17:54;;;;;;;1.73;1.63;;;23.00;99.90;;;;;;494070;241;28818;-74
2022/06/28 14:19:56;;;;;;;1.60;1.50;;;23.10;99.90;;;;;;494004;241;28818;-71
2022/06/28 14:21:57;;;;;;;1.70;1.60;;;23.20;99.90;;;;;;494021;241;29282;-71
2022/06/28 14:23:58;;;;;;;2.53;1.90;;;22.90;99.90;;;;;;494098;241;29412;-71
2022/06/28 14:26:00;;;;;;;1.50;1.50;;;22.90;99.90;;;;;;494071;241;29248;-72
2022/06/28 14:28:01;;;;;;;2.27;1.80;;;23.00;99.90;;;;;;494076;241;28848;-74
2022/06/28 14:30:02;;;;;;;2.10;1.53;;;23.20;99.90;;;;;;493872;241;28783;-71
2022/06/28 14:32:04;;;;;;;1.80;1.70;;;23.30;99.90;;;;;;494076;241;28809;-72
2022/06/28 14:34:05;;;;;;;1.60;1.50;;;23.30;99.90;;;;;;494061;241;28907;-71
2022/06/28 14:36:06;;;;;;;2.13;1.70;;;23.30;99.90;;;;;;494024;241;28823;-71
2022/06/28 14:38:07;;;;;;;2.50;1.50;;;23.40;99.90;;;;;;494043;241;29178;-71
2022/06/28 14:40:08;;;;;;;1.90;1.80;;;23.60;99.90;;;;;;494043;241;28809;-71
2022/06/28 14:42:10;;;;;;;2.90;1.67;;;23.60;99.90;;;;;;494074;241;28903;-72
2022/06/28 14:44:11;;;;;;;2.90;2.00;;;23.40;99.90;;;;;;494087;241;28786;-71
2022/06/28 14:46:12;;;;;;;2.23;1.90;;;23.50;99.90;;;;;;494069;241;29326;-72
2022/06/28 14:48:13;;;;;;;2.40;1.70;;;23.50;99.90;;;;;;494065;241;29486;-74
2022/06/28 14:50:15;;;;;;;2.37;1.57;;;23.60;99.90;;;;;;494076;241;29251;-71
2022/06/28 14:52:19;;;;;;;2.63;1.53;;;23.80;99.90;;;;;;494083;241;29301;-72
2022/06/28 14:54:17;;;;;;;2.20;1.37;;;23.80;99.90;;;;;;493847;241;28810;-73
2022/06/28 14:56:18;;;;;;;2.10;1.90;;;23.80;99.90;;;;;;494075;241;28822;-71
2022/06/28 14:58:20;;;;;;;1.93;1.83;;;23.50;99.90;;;;;;494094;241;28823;-73
2022/06/28 15:00:21;;;;;;;1.70;1.60;;;23.70;99.90;;;;;;494102;241;29012;-71
2022/06/28 15:02:22;;;;;;;3.00;2.10;;;23.70;99.90;;;;;;494095;241;28921;-71
2022/06/28 15:04:23;;;;;;;1.97;1.87;;;23.90;99.90;;;;;;494098;241;28778;-71
2022/06/28 15:06:25;;;;;;;1.97;1.87;;;24.10;99.90;;;;;;494073;241;28828;-71
2022/06/28 15:08:26;;;;;;;1.60;1.50;;;24.10;99.90;;;;;;494067;241;28917;-74
2022/06/28 15:10:27;;;;;;;2.10;2.00;;;23.70;99.90;;;;;;494006;241;29369;-71
2022/06/28 15:12:28;;;;;;;1.97;1.70;;;23.60;99.90;;;;;;494058;241;29318;-72
2022/06/28 15:14:30;;;;;;;2.50;1.93;;;23.60;99.90;;;;;;494012;241;29265;-71
2022/06/28 15:16:32;;;;;;;3.33;1.60;;;23.70;99.90;;;;;;494014;241;29316;-72
2022/06/28 15:18:32;;;;;;;2.67;1.50;;;23.90;99.90;;;;;;493982;241;28865;-73
2022/06/28 15:20:33;;;;;;;1.80;1.70;;;24.10;99.90;;;;;;493956;241;28792;-72
2022/06/28 15:31:53;;;;;;;2.00;1.90;;;23.60;99.90;;;;;;494051;241;28859;-72
2022/06/28 15:33:54;;;;;;;1.60;1.50;;;23.60;99.90;;;;;;494057;241;28827;-71
2022/06/28 15:35:55;;;;;;;2.00;1.60;;;23.80;99.90;;;;;;494046;239;28829;-71
2022/06/28 15:37:56;;;;;;;1.67;1.57;;;23.90;99.90;;;;;;494062;239;29321;-73
2022/06/28 15:39:58;;;;;;;1.63;1.53;;;23.80;99.90;;;;;;494048;241;29447;-71
2022/06/28 15:42:01;;;;;;;1.47;1.40;;;24.00;99.90;;;;;;494062;241;29325;-71
2022/06/28 15:44:00;;;;;;;4.40;1.60;;;24.20;99.90;;;;;;493903;241;29265;-71
2022/06/28 15:46:01;;;;;;;1.30;1.30;;;24.50;99.90;;;;;;493999;241;29302;-71
2022/06/28 15:48:03;;;;;;;1.73;1.63;;;24.70;99.90;;;;;;494102;241;29401;-73
2022/06/28 15:50:04;;;;;;;2.03;1.80;;;24.60;99.90;;;;;;494092;241;28794;-71
2022/06/28 15:52:05;;;;;;;1.70;1.60;;;24.50;99.90;;;;;;494109;241;28823;-71
2022/06/28 15:54:06;;;;;;;1.77;1.60;;;24.30;99.90;;;;;;493904;241;28886;-71
2022/06/28 15:56:08;;;;;;;1.40;1.30;;;24.20;99.90;;;;;;494085;241;29249;-71
2022/06/28 15:58:09;;;;;;;1.70;1.60;;;24.10;99.90;;;;;;494005;241;29203;-71